sensor_id;sensor_type;location;lat;lon;timestamp;P1;durP1;ratioP1;P2;durP2;ratioP2
53650;SDS011;39552;45.776;15.892;2022-10-17T00:00:41;78.13;;;49.22;;
53650;SDS011;39552;45.776;15.892;2022-10-17T00:03:09;79.03;;;49.88;;
53650;SDS011;39552;45.776;15.892;2022-10-17T00:05:39;76.22;;;49.25;;
53650;SDS011;39552;45.776;15.892;2022-10-17T00:08:07;79.07;;;50.92;;
53650;SDS011;39552;45.776;15.892;2022-10-17T00:10:34;84.30;;;51.55;;
53650;SDS011;39552;45.776;15.892;2022-10-17T00:13:01;86.07;;;50.58;;
53650;SDS011;39552;45.776;15.892;2022-10-17T00:15:31;75.10;;;48.42;;
53650;SDS011;39552;45.776;15.892;2022-10-17T00:17:58;81.18;;;49.78;;
53650;SDS011;39552;45.776;15.892;2022-10-17T00:20:25;76.82;;;47.30;;
53650;SDS011;39552;45.776;15.892;2022-10-17T00:23:00;76.78;;;48.45;;
53650;SDS011;39552;45.776;15.892;2022-10-17T00:25:27;79.20;;;50.28;;
53650;SDS011;39552;45.776;15.892;2022-10-17T00:27:53;80.10;;;49.58;;
53650;SDS011;39552;45.776;15.892;2022-10-17T00:30:29;80.22;;;49.92;;
53650;SDS011;39552;45.776;15.892;2022-10-17T00:32:55;85.95;;;50.38;;
53650;SDS011;39552;45.776;15.892;2022-10-17T00:35:22;83.22;;;49.63;;
53650;SDS011;39552;45.776;15.892;2022-10-17T00:37:49;74.13;;;47.25;;
53650;SDS011;39552;45.776;15.892;2022-10-17T00:40:17;75.60;;;47.40;;
53650;SDS011;39552;45.776;15.892;2022-10-17T00:42:44;78.72;;;47.78;;
53650;SDS011;39552;45.776;15.892;2022-10-17T00:45:13;78.03;;;47.40;;
53650;SDS011;39552;45.776;15.892;2022-10-17T00:47:43;70.53;;;45.10;;
53650;SDS011;39552;45.776;15.892;2022-10-17T00:50:13;80.15;;;45.90;;
53650;SDS011;39552;45.776;15.892;2022-10-17T00:52:40;71.25;;;45.25;;
53650;SDS011;39552;45.776;15.892;2022-10-17T00:55:09;74.28;;;45.28;;
53650;SDS011;39552;45.776;15.892;2022-10-17T00:57:41;73.85;;;45.53;;
53650;SDS011;39552;45.776;15.892;2022-10-17T01:00:09;76.75;;;44.53;;
53650;SDS011;39552;45.776;15.892;2022-10-17T01:02:37;68.45;;;45.67;;
53650;SDS011;39552;45.776;15.892;2022-10-17T01:05:04;70.18;;;45.78;;
53650;SDS011;39552;45.776;15.892;2022-10-17T01:07:32;69.78;;;44.88;;
53650;SDS011;39552;45.776;15.892;2022-10-17T01:10:03;63.05;;;42.63;;
53650;SDS011;39552;45.776;15.892;2022-10-17T01:12:31;65.80;;;43.22;;
53650;SDS011;39552;45.776;15.892;2022-10-17T01:15:11;66.30;;;43.85;;
53650;SDS011;39552;45.776;15.892;2022-10-17T01:17:50;71.38;;;42.72;;
53650;SDS011;39552;45.776;15.892;2022-10-17T01:23:40;74.25;;;42.28;;
53650;SDS011;39552;45.776;15.892;2022-10-17T01:26:43;77.65;;;44.25;;
53650;SDS011;39552;45.776;15.892;2022-10-17T01:29:31;63.65;;;39.90;;
53650;SDS011;39552;45.776;15.892;2022-10-17T01:32:08;62.35;;;40.05;;
53650;SDS011;39552;45.776;15.892;2022-10-17T01:34:42;71.40;;;42.58;;
53650;SDS011;39552;45.776;15.892;2022-10-17T01:37:13;64.97;;;42.60;;
53650;SDS011;39552;45.776;15.892;2022-10-17T01:39:45;66.80;;;41.95;;
53650;SDS011;39552;45.776;15.892;2022-10-17T01:42:16;59.15;;;40.00;;
53650;SDS011;39552;45.776;15.892;2022-10-17T01:44:47;54.78;;;38.50;;
53650;SDS011;39552;45.776;15.892;2022-10-17T01:47:21;59.80;;;39.83;;
53650;SDS011;39552;45.776;15.892;2022-10-17T01:49:52;64.20;;;39.72;;
53650;SDS011;39552;45.776;15.892;2022-10-17T01:52:23;66.55;;;40.42;;
53650;SDS011;39552;45.776;15.892;2022-10-17T01:54:54;56.90;;;36.88;;
53650;SDS011;39552;45.776;15.892;2022-10-17T01:57:24;56.63;;;38.63;;
53650;SDS011;39552;45.776;15.892;2022-10-17T01:59:55;54.03;;;38.20;;
53650;SDS011;39552;45.776;15.892;2022-10-17T02:02:24;59.33;;;38.20;;
53650;SDS011;39552;45.776;15.892;2022-10-17T02:04:52;55.22;;;37.25;;
53650;SDS011;39552;45.776;15.892;2022-10-17T02:07:22;54.40;;;37.40;;
53650;SDS011;39552;45.776;15.892;2022-10-17T02:09:51;49.53;;;35.97;;
53650;SDS011;39552;45.776;15.892;2022-10-17T02:14:59;49.40;;;34.13;;
53650;SDS011;39552;45.776;15.892;2022-10-17T02:17:40;54.42;;;37.08;;
53650;SDS011;39552;45.776;15.892;2022-10-17T02:20:13;57.55;;;35.50;;
53650;SDS011;39552;45.776;15.892;2022-10-17T02:22:46;49.58;;;34.15;;
53650;SDS011;39552;45.776;15.892;2022-10-17T02:25:20;50.78;;;34.30;;
53650;SDS011;39552;45.776;15.892;2022-10-17T02:27:55;52.00;;;36.05;;
53650;SDS011;39552;45.776;15.892;2022-10-17T02:30:32;50.67;;;35.80;;
53650;SDS011;39552;45.776;15.892;2022-10-17T02:33:06;47.50;;;34.05;;
53650;SDS011;39552;45.776;15.892;2022-10-17T02:35:37;49.30;;;34.97;;
53650;SDS011;39552;45.776;15.892;2022-10-17T02:38:07;47.88;;;34.97;;
53650;SDS011;39552;45.776;15.892;2022-10-17T02:40:36;55.65;;;35.20;;
53650;SDS011;39552;45.776;15.892;2022-10-17T02:43:05;50.03;;;35.47;;
53650;SDS011;39552;45.776;15.892;2022-10-17T02:45:32;46.47;;;34.17;;
53650;SDS011;39552;45.776;15.892;2022-10-17T02:48:02;45.63;;;34.17;;
53650;SDS011;39552;45.776;15.892;2022-10-17T02:53:05;44.95;;;33.72;;
53650;SDS011;39552;45.776;15.892;2022-10-17T02:55:38;47.47;;;32.58;;
53650;SDS011;39552;45.776;15.892;2022-10-17T02:58:10;47.10;;;33.47;;
53650;SDS011;39552;45.776;15.892;2022-10-17T03:00:41;44.10;;;34.13;;
53650;SDS011;39552;45.776;15.892;2022-10-17T03:03:20;45.72;;;33.67;;
53650;SDS011;39552;45.776;15.892;2022-10-17T03:05:50;44.58;;;33.60;;
53650;SDS011;39552;45.776;15.892;2022-10-17T03:08:17;44.33;;;34.08;;
53650;SDS011;39552;45.776;15.892;2022-10-17T03:10:44;43.50;;;31.65;;
53650;SDS011;39552;45.776;15.892;2022-10-17T03:13:11;40.55;;;32.42;;
53650;SDS011;39552;45.776;15.892;2022-10-17T03:15:38;46.13;;;33.42;;
53650;SDS011;39552;45.776;15.892;2022-10-17T03:18:04;47.42;;;33.45;;
53650;SDS011;39552;45.776;15.892;2022-10-17T03:20:31;46.10;;;33.75;;
53650;SDS011;39552;45.776;15.892;2022-10-17T03:22:59;51.28;;;34.70;;
53650;SDS011;39552;45.776;15.892;2022-10-17T03:25:27;46.20;;;33.23;;
53650;SDS011;39552;45.776;15.892;2022-10-17T03:28:17;52.33;;;33.90;;
53650;SDS011;39552;45.776;15.892;2022-10-17T03:30:52;45.63;;;33.70;;
53650;SDS011;39552;45.776;15.892;2022-10-17T03:33:37;51.50;;;33.65;;
53650;SDS011;39552;45.776;15.892;2022-10-17T03:36:10;83.10;;;32.72;;
53650;SDS011;39552;45.776;15.892;2022-10-17T03:41:29;80.15;;;33.15;;
53650;SDS011;39552;45.776;15.892;2022-10-17T03:44:15;52.65;;;33.33;;
53650;SDS011;39552;45.776;15.892;2022-10-17T03:46:58;64.75;;;34.10;;
53650;SDS011;39552;45.776;15.892;2022-10-17T03:49:32;43.97;;;31.98;;
53650;SDS011;39552;45.776;15.892;2022-10-17T03:52:23;43.47;;;31.77;;
53650;SDS011;39552;45.776;15.892;2022-10-17T03:54:58;42.80;;;31.65;;
53650;SDS011;39552;45.776;15.892;2022-10-17T03:57:33;56.85;;;33.70;;
53650;SDS011;39552;45.776;15.892;2022-10-17T04:00:19;46.10;;;32.25;;
53650;SDS011;39552;45.776;15.892;2022-10-17T04:02:58;50.47;;;33.85;;
53650;SDS011;39552;45.776;15.892;2022-10-17T04:05:42;45.28;;;32.58;;
53650;SDS011;39552;45.776;15.892;2022-10-17T04:10:52;42.40;;;31.25;;
53650;SDS011;39552;45.776;15.892;2022-10-17T04:13:33;40.97;;;31.08;;
53650;SDS011;39552;45.776;15.892;2022-10-17T04:16:09;46.42;;;30.98;;
53650;SDS011;39552;45.776;15.892;2022-10-17T04:19:00;43.65;;;30.08;;
53650;SDS011;39552;45.776;15.892;2022-10-17T04:21:38;38.20;;;30.25;;
53650;SDS011;39552;45.776;15.892;2022-10-17T04:24:05;42.00;;;31.08;;
53650;SDS011;39552;45.776;15.892;2022-10-17T04:26:37;47.53;;;32.97;;
53650;SDS011;39552;45.776;15.892;2022-10-17T04:29:21;46.83;;;32.42;;
53650;SDS011;39552;45.776;15.892;2022-10-17T04:31:52;44.03;;;32.95;;
53650;SDS011;39552;45.776;15.892;2022-10-17T04:34:26;56.33;;;32.00;;
53650;SDS011;39552;45.776;15.892;2022-10-17T04:36:53;90.82;;;33.33;;
53650;SDS011;39552;45.776;15.892;2022-10-17T04:39:30;66.90;;;32.85;;
53650;SDS011;39552;45.776;15.892;2022-10-17T04:42:18;80.03;;;33.58;;
53650;SDS011;39552;45.776;15.892;2022-10-17T04:44:54;90.47;;;32.55;;
53650;SDS011;39552;45.776;15.892;2022-10-17T04:47:35;53.75;;;32.13;;
53650;SDS011;39552;45.776;15.892;2022-10-17T04:50:07;46.42;;;31.20;;
53650;SDS011;39552;45.776;15.892;2022-10-17T04:52:44;44.63;;;31.50;;
53650;SDS011;39552;45.776;15.892;2022-10-17T04:55:11;52.45;;;31.05;;
53650;SDS011;39552;45.776;15.892;2022-10-17T04:57:39;60.10;;;30.25;;
53650;SDS011;39552;45.776;15.892;2022-10-17T05:00:11;59.67;;;30.05;;
53650;SDS011;39552;45.776;15.892;2022-10-17T05:02:38;70.75;;;30.35;;
53650;SDS011;39552;45.776;15.892;2022-10-17T05:05:05;52.08;;;30.10;;
53650;SDS011;39552;45.776;15.892;2022-10-17T05:07:32;53.38;;;30.40;;
53650;SDS011;39552;45.776;15.892;2022-10-17T05:09:59;47.88;;;30.00;;
53650;SDS011;39552;45.776;15.892;2022-10-17T05:12:25;66.10;;;30.50;;
53650;SDS011;39552;45.776;15.892;2022-10-17T05:14:54;63.03;;;30.75;;
53650;SDS011;39552;45.776;15.892;2022-10-17T05:17:21;97.03;;;30.92;;
53650;SDS011;39552;45.776;15.892;2022-10-17T05:19:47;54.30;;;32.17;;
53650;SDS011;39552;45.776;15.892;2022-10-17T05:22:14;67.47;;;31.00;;
53650;SDS011;39552;45.776;15.892;2022-10-17T05:24:41;85.25;;;30.35;;
53650;SDS011;39552;45.776;15.892;2022-10-17T05:27:07;91.60;;;29.70;;
53650;SDS011;39552;45.776;15.892;2022-10-17T05:29:34;80.32;;;30.90;;
53650;SDS011;39552;45.776;15.892;2022-10-17T05:32:02;127.10;;;32.28;;
53650;SDS011;39552;45.776;15.892;2022-10-17T05:34:29;122.03;;;30.40;;
53650;SDS011;39552;45.776;15.892;2022-10-17T05:36:56;77.65;;;29.42;;
53650;SDS011;39552;45.776;15.892;2022-10-17T05:39:23;70.88;;;29.00;;
53650;SDS011;39552;45.776;15.892;2022-10-17T05:41:49;82.65;;;29.67;;
53650;SDS011;39552;45.776;15.892;2022-10-17T05:44:16;56.50;;;28.90;;
53650;SDS011;39552;45.776;15.892;2022-10-17T05:46:43;45.10;;;28.85;;
53650;SDS011;39552;45.776;15.892;2022-10-17T05:49:11;88.40;;;29.50;;
53650;SDS011;39552;45.776;15.892;2022-10-17T05:51:50;69.63;;;29.65;;
53650;SDS011;39552;45.776;15.892;2022-10-17T05:54:17;82.70;;;30.65;;
53650;SDS011;39552;45.776;15.892;2022-10-17T05:56:44;52.20;;;28.35;;
53650;SDS011;39552;45.776;15.892;2022-10-17T05:59:10;98.88;;;30.00;;
53650;SDS011;39552;45.776;15.892;2022-10-17T06:01:37;56.38;;;27.30;;
53650;SDS011;39552;45.776;15.892;2022-10-17T06:04:04;112.72;;;29.33;;
53650;SDS011;39552;45.776;15.892;2022-10-17T06:06:32;92.45;;;30.55;;
53650;SDS011;39552;45.776;15.892;2022-10-17T06:09:01;103.03;;;31.05;;
53650;SDS011;39552;45.776;15.892;2022-10-17T06:11:48;83.60;;;31.88;;
53650;SDS011;39552;45.776;15.892;2022-10-17T06:14:14;64.20;;;30.27;;
53650;SDS011;39552;45.776;15.892;2022-10-17T06:16:48;70.32;;;30.63;;
53650;SDS011;39552;45.776;15.892;2022-10-17T06:19:22;49.15;;;28.48;;
53650;SDS011;39552;45.776;15.892;2022-10-17T06:21:58;45.60;;;28.42;;
53650;SDS011;39552;45.776;15.892;2022-10-17T06:24:25;43.88;;;28.55;;
53650;SDS011;39552;45.776;15.892;2022-10-17T06:26:52;57.40;;;27.90;;
53650;SDS011;39552;45.776;15.892;2022-10-17T06:29:24;79.03;;;29.38;;
53650;SDS011;39552;45.776;15.892;2022-10-17T06:31:51;104.32;;;29.30;;
53650;SDS011;39552;45.776;15.892;2022-10-17T06:34:31;60.88;;;28.98;;
53650;SDS011;39552;45.776;15.892;2022-10-17T06:37:08;80.38;;;27.73;;
53650;SDS011;39552;45.776;15.892;2022-10-17T06:39:34;45.70;;;29.58;;
53650;SDS011;39552;45.776;15.892;2022-10-17T06:42:02;59.05;;;28.80;;
53650;SDS011;39552;45.776;15.892;2022-10-17T06:44:29;51.08;;;28.13;;
53650;SDS011;39552;45.776;15.892;2022-10-17T06:46:56;72.03;;;28.35;;
53650;SDS011;39552;45.776;15.892;2022-10-17T06:49:23;104.22;;;29.08;;
53650;SDS011;39552;45.776;15.892;2022-10-17T06:51:52;81.68;;;29.80;;
53650;SDS011;39552;45.776;15.892;2022-10-17T06:54:37;77.72;;;28.58;;
53650;SDS011;39552;45.776;15.892;2022-10-17T06:57:03;67.82;;;29.27;;
53650;SDS011;39552;45.776;15.892;2022-10-17T06:59:30;66.93;;;29.55;;
53650;SDS011;39552;45.776;15.892;2022-10-17T07:01:59;66.27;;;29.23;;
53650;SDS011;39552;45.776;15.892;2022-10-17T07:04:34;54.63;;;29.73;;
53650;SDS011;39552;45.776;15.892;2022-10-17T07:07:10;59.87;;;28.27;;
53650;SDS011;39552;45.776;15.892;2022-10-17T07:09:38;72.75;;;28.52;;
53650;SDS011;39552;45.776;15.892;2022-10-17T07:12:05;49.63;;;28.90;;
53650;SDS011;39552;45.776;15.892;2022-10-17T07:14:39;61.85;;;28.88;;
53650;SDS011;39552;45.776;15.892;2022-10-17T07:17:06;70.20;;;29.40;;
53650;SDS011;39552;45.776;15.892;2022-10-17T07:19:33;63.42;;;29.45;;
53650;SDS011;39552;45.776;15.892;2022-10-17T07:22:17;41.55;;;29.10;;
53650;SDS011;39552;45.776;15.892;2022-10-17T07:25:02;59.33;;;29.10;;
53650;SDS011;39552;45.776;15.892;2022-10-17T07:27:37;71.50;;;31.08;;
53650;SDS011;39552;45.776;15.892;2022-10-17T07:30:20;40.22;;;28.92;;
53650;SDS011;39552;45.776;15.892;2022-10-17T07:32:51;45.63;;;29.02;;
53650;SDS011;39552;45.776;15.892;2022-10-17T07:35:23;43.67;;;31.10;;
53650;SDS011;39552;45.776;15.892;2022-10-17T07:37:53;56.33;;;30.73;;
53650;SDS011;39552;45.776;15.892;2022-10-17T07:40:28;47.80;;;31.33;;
53650;SDS011;39552;45.776;15.892;2022-10-17T07:42:54;49.00;;;32.28;;
53650;SDS011;39552;45.776;15.892;2022-10-17T07:45:21;68.60;;;34.28;;
53650;SDS011;39552;45.776;15.892;2022-10-17T07:47:48;60.85;;;34.90;;
53650;SDS011;39552;45.776;15.892;2022-10-17T07:50:18;69.45;;;36.00;;
53650;SDS011;39552;45.776;15.892;2022-10-17T07:52:45;67.78;;;36.58;;
53650;SDS011;39552;45.776;15.892;2022-10-17T07:55:14;61.00;;;34.45;;
53650;SDS011;39552;45.776;15.892;2022-10-17T07:57:48;71.63;;;38.03;;
53650;SDS011;39552;45.776;15.892;2022-10-17T08:00:22;60.95;;;35.58;;
53650;SDS011;39552;45.776;15.892;2022-10-17T08:02:49;64.93;;;36.30;;
53650;SDS011;39552;45.776;15.892;2022-10-17T08:05:17;61.17;;;36.97;;
53650;SDS011;39552;45.776;15.892;2022-10-17T08:07:48;64.30;;;37.70;;
53650;SDS011;39552;45.776;15.892;2022-10-17T08:10:17;66.15;;;37.88;;
53650;SDS011;39552;45.776;15.892;2022-10-17T08:12:44;67.45;;;38.13;;
53650;SDS011;39552;45.776;15.892;2022-10-17T08:15:12;61.13;;;38.05;;
53650;SDS011;39552;45.776;15.892;2022-10-17T08:17:39;58.78;;;37.15;;
53650;SDS011;39552;45.776;15.892;2022-10-17T08:20:06;59.10;;;37.58;;
53650;SDS011;39552;45.776;15.892;2022-10-17T08:22:33;67.10;;;39.83;;
53650;SDS011;39552;45.776;15.892;2022-10-17T08:25:00;65.45;;;39.30;;
53650;SDS011;39552;45.776;15.892;2022-10-17T08:27:37;62.67;;;38.33;;
53650;SDS011;39552;45.776;15.892;2022-10-17T08:30:05;68.82;;;38.55;;
53650;SDS011;39552;45.776;15.892;2022-10-17T08:32:45;62.72;;;40.10;;
53650;SDS011;39552;45.776;15.892;2022-10-17T08:35:12;68.97;;;39.38;;
53650;SDS011;39552;45.776;15.892;2022-10-17T08:37:42;58.63;;;38.75;;
53650;SDS011;39552;45.776;15.892;2022-10-17T08:40:16;61.40;;;37.88;;
53650;SDS011;39552;45.776;15.892;2022-10-17T08:42:56;54.50;;;37.58;;
53650;SDS011;39552;45.776;15.892;2022-10-17T08:45:37;55.40;;;37.72;;
53650;SDS011;39552;45.776;15.892;2022-10-17T08:48:16;56.10;;;36.83;;
53650;SDS011;39552;45.776;15.892;2022-10-17T08:50:50;60.03;;;39.38;;
53650;SDS011;39552;45.776;15.892;2022-10-17T08:53:27;56.25;;;34.60;;
53650;SDS011;39552;45.776;15.892;2022-10-17T08:55:59;51.55;;;34.08;;
53650;SDS011;39552;45.776;15.892;2022-10-17T08:58:37;55.95;;;37.83;;
53650;SDS011;39552;45.776;15.892;2022-10-17T09:01:07;51.08;;;35.03;;
53650;SDS011;39552;45.776;15.892;2022-10-17T09:03:47;46.75;;;34.17;;
53650;SDS011;39552;45.776;15.892;2022-10-17T09:06:31;57.40;;;36.38;;
53650;SDS011;39552;45.776;15.892;2022-10-17T09:09:07;51.17;;;35.40;;
53650;SDS011;39552;45.776;15.892;2022-10-17T09:11:47;55.60;;;36.50;;
53650;SDS011;39552;45.776;15.892;2022-10-17T09:14:30;50.35;;;35.00;;
53650;SDS011;39552;45.776;15.892;2022-10-17T09:17:17;49.03;;;36.58;;
53650;SDS011;39552;45.776;15.892;2022-10-17T09:20:03;60.80;;;36.55;;
53650;SDS011;39552;45.776;15.892;2022-10-17T09:22:53;50.60;;;34.90;;
53650;SDS011;39552;45.776;15.892;2022-10-17T09:25:45;58.35;;;35.50;;
53650;SDS011;39552;45.776;15.892;2022-10-17T09:28:24;53.70;;;35.50;;
53650;SDS011;39552;45.776;15.892;2022-10-17T09:31:15;51.83;;;35.58;;
53650;SDS011;39552;45.776;15.892;2022-10-17T09:34:18;53.47;;;34.78;;
53650;SDS011;39552;45.776;15.892;2022-10-17T09:37:05;51.90;;;35.35;;
53650;SDS011;39552;45.776;15.892;2022-10-17T09:40:00;47.70;;;34.25;;
53650;SDS011;39552;45.776;15.892;2022-10-17T09:42:38;53.08;;;35.65;;
53650;SDS011;39552;45.776;15.892;2022-10-17T09:45:26;59.83;;;35.75;;
53650;SDS011;39552;45.776;15.892;2022-10-17T09:48:04;58.22;;;33.42;;
53650;SDS011;39552;45.776;15.892;2022-10-17T09:50:47;60.30;;;34.78;;
53650;SDS011;39552;45.776;15.892;2022-10-17T09:53:50;58.83;;;35.70;;
53650;SDS011;39552;45.776;15.892;2022-10-17T09:56:25;59.55;;;35.65;;
53650;SDS011;39552;45.776;15.892;2022-10-17T09:59:05;61.60;;;33.97;;
53650;SDS011;39552;45.776;15.892;2022-10-17T10:01:43;51.30;;;34.28;;
53650;SDS011;39552;45.776;15.892;2022-10-17T10:04:31;50.92;;;34.22;;
53650;SDS011;39552;45.776;15.892;2022-10-17T10:07:21;43.58;;;31.50;;
53650;SDS011;39552;45.776;15.892;2022-10-17T10:10:07;47.95;;;34.25;;
53650;SDS011;39552;45.776;15.892;2022-10-17T10:13:06;53.20;;;32.53;;
53650;SDS011;39552;45.776;15.892;2022-10-17T10:15:49;53.47;;;32.03;;
53650;SDS011;39552;45.776;15.892;2022-10-17T10:18:51;41.90;;;26.88;;
53650;SDS011;39552;45.776;15.892;2022-10-17T10:21:36;48.55;;;29.63;;
53650;SDS011;39552;45.776;15.892;2022-10-17T10:24:27;42.35;;;29.23;;
53650;SDS011;39552;45.776;15.892;2022-10-17T10:27:02;45.20;;;29.42;;
53650;SDS011;39552;45.776;15.892;2022-10-17T10:29:51;44.38;;;26.70;;
53650;SDS011;39552;45.776;15.892;2022-10-17T10:32:29;40.17;;;26.98;;
53650;SDS011;39552;45.776;15.892;2022-10-17T10:40:38;41.78;;;26.67;;
53650;SDS011;39552;45.776;15.892;2022-10-17T10:43:23;39.72;;;28.15;;
53650;SDS011;39552;45.776;15.892;2022-10-17T10:46:00;40.67;;;27.55;;
53650;SDS011;39552;45.776;15.892;2022-10-17T10:49:02;42.08;;;28.15;;
53650;SDS011;39552;45.776;15.892;2022-10-17T10:52:03;44.42;;;26.95;;
53650;SDS011;39552;45.776;15.892;2022-10-17T10:54:49;39.47;;;27.52;;
53650;SDS011;39552;45.776;15.892;2022-10-17T10:57:29;38.35;;;25.98;;
53650;SDS011;39552;45.776;15.892;2022-10-17T11:03:17;40.67;;;25.00;;
53650;SDS011;39552;45.776;15.892;2022-10-17T11:06:10;38.67;;;25.17;;
53650;SDS011;39552;45.776;15.892;2022-10-17T11:08:55;46.13;;;25.90;;
53650;SDS011;39552;45.776;15.892;2022-10-17T11:12:02;49.40;;;26.83;;
53650;SDS011;39552;45.776;15.892;2022-10-17T11:14:56;42.45;;;25.45;;
53650;SDS011;39552;45.776;15.892;2022-10-17T11:18:05;37.40;;;26.13;;
53650;SDS011;39552;45.776;15.892;2022-10-17T11:21:04;34.40;;;25.85;;
53650;SDS011;39552;45.776;15.892;2022-10-17T11:24:03;34.80;;;24.98;;
53650;SDS011;39552;45.776;15.892;2022-10-17T11:26:48;32.15;;;24.40;;
53650;SDS011;39552;45.776;15.892;2022-10-17T11:32:41;30.15;;;21.15;;
53650;SDS011;39552;45.776;15.892;2022-10-17T11:35:28;32.85;;;19.85;;
53650;SDS011;39552;45.776;15.892;2022-10-17T11:40:39;28.10;;;18.52;;
53650;SDS011;39552;45.776;15.892;2022-10-17T11:43:13;34.03;;;18.50;;
53650;SDS011;39552;45.776;15.892;2022-10-17T11:46:03;25.25;;;17.10;;
53650;SDS011;39552;45.776;15.892;2022-10-17T11:49:04;26.08;;;14.90;;
53650;SDS011;39552;45.776;15.892;2022-10-17T11:55:22;23.75;;;16.48;;
53650;SDS011;39552;45.776;15.892;2022-10-17T12:01:11;23.77;;;15.75;;
53650;SDS011;39552;45.776;15.892;2022-10-17T12:04:00;28.85;;;15.90;;
53650;SDS011;39552;45.776;15.892;2022-10-17T12:07:02;35.33;;;16.55;;
53650;SDS011;39552;45.776;15.892;2022-10-17T12:09:47;31.88;;;16.65;;
53650;SDS011;39552;45.776;15.892;2022-10-17T12:12:36;26.77;;;17.73;;
53650;SDS011;39552;45.776;15.892;2022-10-17T12:18:04;26.58;;;15.80;;
53650;SDS011;39552;45.776;15.892;2022-10-17T12:20:56;23.40;;;14.85;;
53650;SDS011;39552;45.776;15.892;2022-10-17T12:23:32;30.48;;;16.60;;
53650;SDS011;39552;45.776;15.892;2022-10-17T12:26:16;26.58;;;15.55;;
53650;SDS011;39552;45.776;15.892;2022-10-17T12:29:02;24.52;;;15.52;;
53650;SDS011;39552;45.776;15.892;2022-10-17T12:31:44;30.65;;;16.65;;
53650;SDS011;39552;45.776;15.892;2022-10-17T12:37:14;20.70;;;15.07;;
53650;SDS011;39552;45.776;15.892;2022-10-17T12:43:48;21.42;;;14.38;;
53650;SDS011;39552;45.776;15.892;2022-10-17T12:54:46;22.58;;;14.50;;
53650;SDS011;39552;45.776;15.892;2022-10-17T12:56:17;21.25;;;14.20;;
53650;SDS011;39552;45.776;15.892;2022-10-17T12:58:57;20.20;;;14.52;;
53650;SDS011;39552;45.776;15.892;2022-10-17T13:01:30;22.55;;;15.30;;
53650;SDS011;39552;45.776;15.892;2022-10-17T13:04:38;21.80;;;14.73;;
53650;SDS011;39552;45.776;15.892;2022-10-17T13:07:43;20.75;;;14.68;;
53650;SDS011;39552;45.776;15.892;2022-10-17T13:11:01;16.55;;;13.55;;
53650;SDS011;39552;45.776;15.892;2022-10-17T13:14:09;21.92;;;15.00;;
53650;SDS011;39552;45.776;15.892;2022-10-17T13:17:01;17.48;;;14.32;;
53650;SDS011;39552;45.776;15.892;2022-10-17T13:36:44;21.88;;;14.75;;
53650;SDS011;39552;45.776;15.892;2022-10-17T13:40:51;17.83;;;14.00;;
53650;SDS011;39552;45.776;15.892;2022-10-17T13:43:55;19.35;;;14.40;;
53650;SDS011;39552;45.776;15.892;2022-10-17T13:46:45;36.38;;;15.52;;
53650;SDS011;39552;45.776;15.892;2022-10-17T13:49:20;27.17;;;15.57;;
53650;SDS011;39552;45.776;15.892;2022-10-17T13:52:25;22.83;;;15.52;;
53650;SDS011;39552;45.776;15.892;2022-10-17T13:55:05;23.67;;;15.40;;
53650;SDS011;39552;45.776;15.892;2022-10-17T13:57:45;20.52;;;14.20;;
53650;SDS011;39552;45.776;15.892;2022-10-17T14:00:24;22.92;;;15.63;;
53650;SDS011;39552;45.776;15.892;2022-10-17T14:06:20;19.25;;;14.73;;
53650;SDS011;39552;45.776;15.892;2022-10-17T14:09:02;21.83;;;13.88;;
53650;SDS011;39552;45.776;15.892;2022-10-17T14:12:08;20.95;;;14.27;;
53650;SDS011;39552;45.776;15.892;2022-10-17T14:15:05;18.25;;;14.10;;
53650;SDS011;39552;45.776;15.892;2022-10-17T14:17:53;28.58;;;15.48;;
53650;SDS011;39552;45.776;15.892;2022-10-17T14:23:39;22.33;;;14.27;;
53650;SDS011;39552;45.776;15.892;2022-10-17T14:26:22;24.90;;;14.55;;
53650;SDS011;39552;45.776;15.892;2022-10-17T14:32:41;20.20;;;13.88;;
53650;SDS011;39552;45.776;15.892;2022-10-17T14:35:30;20.40;;;14.00;;
53650;SDS011;39552;45.776;15.892;2022-10-17T14:41:19;21.52;;;14.85;;
53650;SDS011;39552;45.776;15.892;2022-10-17T14:44:12;24.80;;;14.85;;
53650;SDS011;39552;45.776;15.892;2022-10-17T14:46:44;19.95;;;13.77;;
53650;SDS011;39552;45.776;15.892;2022-10-17T14:49:17;22.23;;;14.55;;
53650;SDS011;39552;45.776;15.892;2022-10-17T14:52:21;20.33;;;14.23;;
53650;SDS011;39552;45.776;15.892;2022-10-17T14:54:53;22.60;;;14.90;;
53650;SDS011;39552;45.776;15.892;2022-10-17T14:57:21;25.73;;;15.90;;
53650;SDS011;39552;45.776;15.892;2022-10-17T14:59:52;23.83;;;15.65;;
53650;SDS011;39552;45.776;15.892;2022-10-17T15:02:22;31.90;;;15.30;;
53650;SDS011;39552;45.776;15.892;2022-10-17T15:08:09;18.33;;;14.95;;
53650;SDS011;39552;45.776;15.892;2022-10-17T15:11:00;29.67;;;15.10;;
53650;SDS011;39552;45.776;15.892;2022-10-17T15:13:40;19.08;;;14.30;;
53650;SDS011;39552;45.776;15.892;2022-10-17T15:16:12;27.23;;;15.98;;
53650;SDS011;39552;45.776;15.892;2022-10-17T15:18:43;23.25;;;14.52;;
53650;SDS011;39552;45.776;15.892;2022-10-17T16:38:56;34.58;;;18.02;;
53650;SDS011;39552;45.776;15.892;2022-10-17T17:47:04;35.05;;;25.05;;
53650;SDS011;39552;45.776;15.892;2022-10-17T17:50:01;41.60;;;25.30;;
53650;SDS011;39552;45.776;15.892;2022-10-17T17:52:42;38.58;;;25.63;;
53650;SDS011;39552;45.776;15.892;2022-10-17T17:55:52;38.85;;;24.63;;
53650;SDS011;39552;45.776;15.892;2022-10-17T17:59:03;39.53;;;24.77;;
53650;SDS011;39552;45.776;15.892;2022-10-17T18:01:30;38.83;;;25.63;;
53650;SDS011;39552;45.776;15.892;2022-10-17T18:15:29;39.92;;;26.17;;
53650;SDS011;39552;45.776;15.892;2022-10-17T18:18:12;54.15;;;27.67;;
53650;SDS011;39552;45.776;15.892;2022-10-17T18:23:35;62.22;;;28.58;;
53650;SDS011;39552;45.776;15.892;2022-10-17T18:31:47;38.88;;;24.02;;
53650;SDS011;39552;45.776;15.892;2022-10-17T18:34:23;42.78;;;24.85;;
53650;SDS011;39552;45.776;15.892;2022-10-17T18:43:40;51.15;;;27.55;;
53650;SDS011;39552;45.776;15.892;2022-10-17T18:46:41;50.67;;;28.38;;
53650;SDS011;39552;45.776;15.892;2022-10-17T18:49:21;42.45;;;27.60;;
53650;SDS011;39552;45.776;15.892;2022-10-17T18:54:36;38.67;;;24.20;;
53650;SDS011;39552;45.776;15.892;2022-10-17T18:57:51;45.78;;;25.63;;
53650;SDS011;39552;45.776;15.892;2022-10-17T19:01:00;39.08;;;25.38;;
53650;SDS011;39552;45.776;15.892;2022-10-17T19:03:34;57.92;;;25.95;;
53650;SDS011;39552;45.776;15.892;2022-10-17T19:09:54;44.67;;;25.55;;
53650;SDS011;39552;45.776;15.892;2022-10-17T19:15:58;39.47;;;24.33;;
53650;SDS011;39552;45.776;15.892;2022-10-17T19:58:01;43.87;;;26.80;;
53650;SDS011;39552;45.776;15.892;2022-10-17T19:59:42;53.85;;;27.58;;
53650;SDS011;39552;45.776;15.892;2022-10-17T20:15:53;55.25;;;28.95;;
53650;SDS011;39552;45.776;15.892;2022-10-17T20:58:46;72.32;;;41.83;;
53650;SDS011;39552;45.776;15.892;2022-10-17T21:12:44;80.78;;;43.83;;
53650;SDS011;39552;45.776;15.892;2022-10-17T21:30:12;76.32;;;42.15;;